createdAt,value
2022-09-25T00:01:11.044Z,3.83
2022-09-25T00:03:39.251Z,3.42
2022-09-25T00:06:15.040Z,4.53
2022-09-25T00:08:43.297Z,3.90
2022-09-25T00:11:18.345Z,3.85
2022-09-25T00:13:50.034Z,3.80
2022-09-25T00:16:20.752Z,4.28
2022-09-25T00:19:07.547Z,3.85
2022-09-25T00:21:35.853Z,3.92
2022-09-25T00:24:06.467Z,3.75
2022-09-25T00:26:37.421Z,4.30
2022-09-25T00:29:06.374Z,4.63
2022-09-25T00:31:34.380Z,4.53
2022-09-25T00:34:03.921Z,4.68
2022-09-25T00:36:32.860Z,3.70
2022-09-25T00:39:00.826Z,4.60
2022-09-25T00:41:32.077Z,4.20
2022-09-25T00:44:02.460Z,3.85
2022-09-25T00:46:38.496Z,4.57
2022-09-25T00:49:16.733Z,3.67
2022-09-25T00:51:54.627Z,4.10
2022-09-25T00:54:37.057Z,4.40
2022-09-25T00:57:10.820Z,4.47
2022-09-25T00:59:41.637Z,4.47
2022-09-25T01:02:14.440Z,4.40
2022-09-25T01:04:46.262Z,4.32
2022-09-25T01:07:15.085Z,4.10
2022-09-25T01:09:42.479Z,4.05
2022-09-25T01:12:09.917Z,4.07
2022-09-25T01:14:39.521Z,4.07
2022-09-25T01:17:23.240Z,4.25
2022-09-25T01:20:39.780Z,3.95
2022-09-25T01:23:44.081Z,4.05
2022-09-25T01:26:15.595Z,4.15
2022-09-25T01:29:14.759Z,4.03
2022-09-25T01:31:54.191Z,4.38
2022-09-25T01:34:32.483Z,4.50
2022-09-25T01:37:13.803Z,4.88
2022-09-25T01:39:47.264Z,3.97
2022-09-25T01:42:23.139Z,4.20
2022-09-25T01:44:57.971Z,4.25
2022-09-25T01:47:28.994Z,4.30
2022-09-25T01:50:00.541Z,4.63
2022-09-25T01:52:40.878Z,4.30
2022-09-25T01:55:24.059Z,4.10
2022-09-25T01:58:05.736Z,4.28
2022-09-25T02:00:38.064Z,4.00
2022-09-25T02:03:18.366Z,4.10
2022-09-25T02:05:57.552Z,3.65
2022-09-25T02:08:34.223Z,4.25
2022-09-25T02:11:04.717Z,4.40
2022-09-25T02:13:50.657Z,4.05
2022-09-25T02:16:23.221Z,4.53
2022-09-25T02:19:20.577Z,3.80
2022-09-25T02:22:07.373Z,4.28
2022-09-25T02:24:45.558Z,3.90
2022-09-25T02:27:15.562Z,4.35
2022-09-25T02:29:43.351Z,4.22
2022-09-25T02:32:13.652Z,4.38
2022-09-25T02:34:41.877Z,3.75
2022-09-25T02:37:14.495Z,4.25
2022-09-25T02:39:44.986Z,4.22
2022-09-25T02:42:29.031Z,4.00
2022-09-25T02:45:02.500Z,4.40
2022-09-25T02:47:43.588Z,3.97
2022-09-25T02:50:26.734Z,4.35
2022-09-25T02:53:15.280Z,4.80
2022-09-25T02:56:04.685Z,4.07
2022-09-25T02:58:40.988Z,4.40
2022-09-25T03:01:12.680Z,4.30
2022-09-25T03:03:41.460Z,3.80
2022-09-25T03:06:10.546Z,3.55
2022-09-25T03:08:42.518Z,3.90
2022-09-25T03:11:16.253Z,4.50
2022-09-25T03:13:44.807Z,4.13
2022-09-25T03:16:31.480Z,4.25
2022-09-25T03:19:02.226Z,3.72
2022-09-25T03:21:29.940Z,3.40
2022-09-25T03:23:57.198Z,4.25
2022-09-25T03:26:25.476Z,4.05
2022-09-25T03:28:53.645Z,4.28
2022-09-25T03:31:21.794Z,4.32
2022-09-25T03:33:49.393Z,4.43
2022-09-25T03:36:20.830Z,3.72
2022-09-25T03:38:57.958Z,3.55
2022-09-25T03:41:28.142Z,3.85
2022-09-25T03:43:56.759Z,4.07
2022-09-25T03:46:29.684Z,3.97
2022-09-25T03:48:57.263Z,3.83
2022-09-25T03:51:25.804Z,4.22
2022-09-25T03:53:53.829Z,4.03
2022-09-25T03:56:24.472Z,3.78
2022-09-25T03:58:56.474Z,4.40
2022-09-25T04:01:25.032Z,4.38
2022-09-25T04:03:53.417Z,4.25
2022-09-25T04:06:24.502Z,4.03
2022-09-25T04:08:53.836Z,3.90
2022-09-25T04:11:25.075Z,4.10
2022-09-25T04:13:53.044Z,4.25
2022-09-25T04:16:23.991Z,3.85
2022-09-25T04:18:51.810Z,3.35
2022-09-25T04:21:19.269Z,4.10
2022-09-25T04:24:07.476Z,4.10
2022-09-25T04:26:35.834Z,4.65
2022-09-25T04:29:04.474Z,4.22
2022-09-25T04:31:32.689Z,4.20
2022-09-25T04:34:00.473Z,3.97
2022-09-25T04:36:27.967Z,4.10
2022-09-25T04:38:56.719Z,3.67
2022-09-25T04:41:24.783Z,4.22
2022-09-25T04:43:52.311Z,4.97
2022-09-25T04:46:22.596Z,4.55
2022-09-25T04:48:50.896Z,4.50
2022-09-25T04:51:19.421Z,4.22
2022-09-25T04:53:47.559Z,4.55
2022-09-25T04:56:16.634Z,4.00
2022-09-25T04:58:46.567Z,3.88
2022-09-25T05:01:14.083Z,4.45
2022-09-25T05:03:41.760Z,4.30
2022-09-25T05:06:09.895Z,4.63
2022-09-25T05:08:37.520Z,4.75
2022-09-25T05:11:05.088Z,4.45
2022-09-25T05:13:32.366Z,6.55
2022-09-25T05:15:59.906Z,6.97
2022-09-25T05:18:27.859Z,5.47
2022-09-25T05:20:55.411Z,5.03
2022-09-25T05:23:24.880Z,4.57
2022-09-25T05:26:02.671Z,4.22
2022-09-25T05:28:34.490Z,4.50
2022-09-25T05:31:04.018Z,6.25
2022-09-25T05:33:33.463Z,7.57
2022-09-25T05:36:02.586Z,7.85
2022-09-25T05:38:32.871Z,10.95
2022-09-25T05:41:05.199Z,11.27
2022-09-25T05:43:34.177Z,9.45
2022-09-25T05:46:01.921Z,6.70
2022-09-25T05:48:29.250Z,7.30
2022-09-25T05:50:57.651Z,6.70
2022-09-25T05:53:25.350Z,11.30
2022-09-25T05:56:00.374Z,8.73
2022-09-25T05:58:29.482Z,12.40
2022-09-25T06:01:00.928Z,8.82
2022-09-25T06:06:01.722Z,6.30
2022-09-25T06:08:32.891Z,6.00
2022-09-25T06:11:03.687Z,5.82
2022-09-25T06:13:33.240Z,6.38
2022-09-25T06:16:01.200Z,5.63
2022-09-25T06:18:28.517Z,5.70
2022-09-25T06:21:04.726Z,5.70
2022-09-25T06:23:32.483Z,5.30
2022-09-25T06:26:04.271Z,5.30
2022-09-25T06:28:32.609Z,5.72
2022-09-25T06:31:01.782Z,4.85
2022-09-25T06:33:29.327Z,5.07
2022-09-25T06:35:56.535Z,6.90
2022-09-25T06:38:24.421Z,5.05
2022-09-25T06:40:51.681Z,5.00
2022-09-25T06:43:18.990Z,5.10
2022-09-25T06:45:47.945Z,4.05
2022-09-25T06:48:18.150Z,4.85
2022-09-25T06:50:52.888Z,5.88
2022-09-25T06:53:21.730Z,5.00
2022-09-25T06:55:49.730Z,4.55
2022-09-25T06:58:20.628Z,4.00
2022-09-25T07:00:52.187Z,4.70
2022-09-25T07:06:07.531Z,3.25
2022-09-25T07:08:35.038Z,4.47
2022-09-25T07:11:02.414Z,3.58
2022-09-25T07:13:32.163Z,3.58
2022-09-25T07:16:08.560Z,3.63
2022-09-25T07:18:35.828Z,3.17
2022-09-25T07:21:05.976Z,3.63
2022-09-25T07:23:33.959Z,3.20
2022-09-25T07:26:13.845Z,4.32
2022-09-25T07:28:42.555Z,2.97
2022-09-25T07:31:21.704Z,4.32
2022-09-25T07:33:49.498Z,2.70
2022-09-25T07:36:17.970Z,4.15
2022-09-25T07:38:50.014Z,2.60
2022-09-25T07:41:18.590Z,4.55
2022-09-25T07:44:18.104Z,3.45
2022-09-25T07:46:46.894Z,2.85
2022-09-25T07:49:14.356Z,2.58
2022-09-25T07:51:41.697Z,2.50
2022-09-25T07:54:09.176Z,3.00
2022-09-25T07:56:38.468Z,2.88
2022-09-25T07:59:06.020Z,2.70
2022-09-25T08:01:33.332Z,2.70
2022-09-25T08:04:01.803Z,2.40
2022-09-25T08:06:29.133Z,1.77
2022-09-25T08:08:56.514Z,2.22
2022-09-25T08:11:23.958Z,3.88
2022-09-25T08:13:51.450Z,2.67
2022-09-25T08:16:20.877Z,1.85
2022-09-25T08:18:49.697Z,2.10
2022-09-25T08:21:21.177Z,2.50
2022-09-25T08:23:53.778Z,2.63
2022-09-25T08:26:22.203Z,4.93
2022-09-25T08:28:52.187Z,1.80
2022-09-25T08:31:20.115Z,1.60
2022-09-25T08:34:40.445Z,1.73
2022-09-25T08:37:10.266Z,1.77
2022-09-25T08:39:37.703Z,3.50
2022-09-25T08:42:05.310Z,1.88
2022-09-25T08:45:19.455Z,2.40
2022-09-25T08:48:00.275Z,4.18
2022-09-25T08:50:29.901Z,2.40
2022-09-25T08:53:11.387Z,3.25
2022-09-25T08:56:00.649Z,2.58
2022-09-25T08:58:32.538Z,2.33
2022-09-25T09:01:07.535Z,2.10
2022-09-25T09:03:50.917Z,4.20
2022-09-25T09:06:19.038Z,3.00
2022-09-25T09:08:55.355Z,2.17
2022-09-25T09:11:31.072Z,1.67
2022-09-25T09:14:16.094Z,2.72
2022-09-25T09:17:00.954Z,1.90
2022-09-25T09:19:29.069Z,2.22
2022-09-25T09:22:26.978Z,1.92
2022-09-25T09:25:14.774Z,2.05
2022-09-25T09:28:16.437Z,1.40
2022-09-25T09:30:46.355Z,2.08
2022-09-25T09:33:51.336Z,1.25
2022-09-25T09:36:43.058Z,3.15
2022-09-25T09:42:22.008Z,2.00
2022-09-25T09:44:58.771Z,1.80
2022-09-25T09:48:02.440Z,1.60
2022-09-25T09:50:43.360Z,1.67
2022-09-25T09:53:44.242Z,1.42
2022-09-25T09:56:26.018Z,1.45
2022-09-25T09:58:57.292Z,1.33
2022-09-25T10:01:40.932Z,1.20
2022-09-25T10:04:18.291Z,1.20
2022-09-25T10:06:54.001Z,1.48
2022-09-25T10:09:21.118Z,1.90
2022-09-25T10:11:54.203Z,2.80
2022-09-25T10:14:25.093Z,1.70
2022-09-25T10:16:53.984Z,1.40
2022-09-25T10:19:25.261Z,2.90
2022-09-25T10:22:03.419Z,1.65
2022-09-25T10:24:51.444Z,1.20
2022-09-25T10:27:28.534Z,1.65
2022-09-25T10:30:11.260Z,1.20
2022-09-25T10:33:01.912Z,1.20
2022-09-25T10:35:42.318Z,1.30
2022-09-25T10:38:48.338Z,3.17
2022-09-25T10:41:25.779Z,1.20
2022-09-25T10:44:03.222Z,1.05
2022-09-25T10:46:54.425Z,8.20
2022-09-25T10:49:42.837Z,1.10
2022-09-25T10:52:12.220Z,1.27
2022-09-25T10:54:44.762Z,1.17
2022-09-25T10:57:34.401Z,1.20
2022-09-25T11:00:04.115Z,1.08
2022-09-25T11:02:45.789Z,1.00
2022-09-25T11:05:36.023Z,1.48
2022-09-25T11:08:06.657Z,1.30
2022-09-25T11:12:18.754Z,1.33
2022-09-25T11:14:59.160Z,1.30
2022-09-25T11:17:43.346Z,1.30
2022-09-25T11:20:16.733Z,1.15
2022-09-25T11:22:57.223Z,2.50
2022-09-25T11:25:49.556Z,1.35
2022-09-25T11:28:25.364Z,1.05
2022-09-25T11:31:02.975Z,1.88
2022-09-25T11:33:43.251Z,1.55
2022-09-25T11:36:26.203Z,2.45
2022-09-25T11:39:30.313Z,1.50
2022-09-25T11:42:05.469Z,0.80
2022-09-25T11:45:08.327Z,1.10
2022-09-25T11:47:43.512Z,1.08
2022-09-25T11:50:16.471Z,1.20
2022-09-25T11:53:07.217Z,1.20
2022-09-25T11:55:52.677Z,1.10
2022-09-25T11:58:38.545Z,1.25
2022-09-25T12:01:27.201Z,1.40
2022-09-25T12:04:41.720Z,1.08
2022-09-25T12:07:30.431Z,1.00
2022-09-25T12:10:15.061Z,1.30
2022-09-25T12:12:59.229Z,1.52
2022-09-25T12:15:47.097Z,1.30
2022-09-25T12:18:24.190Z,1.30
2022-09-25T12:21:15.261Z,1.00
2022-09-25T12:23:52.468Z,1.10
2022-09-25T12:26:24.331Z,1.00
2022-09-25T12:28:57.481Z,1.17
2022-09-25T12:31:58.727Z,1.00
2022-09-25T12:34:28.859Z,1.10
2022-09-25T12:37:15.277Z,1.08
2022-09-25T12:39:52.389Z,1.20
2022-09-25T12:42:27.436Z,1.10
2022-09-25T12:45:13.313Z,1.58
2022-09-25T12:47:55.759Z,1.27
2022-09-25T12:50:30.661Z,1.20
2022-09-25T12:53:32.720Z,1.00
2022-09-25T12:56:13.400Z,1.13
2022-09-25T12:58:59.482Z,3.35
2022-09-25T13:01:47.599Z,1.27
2022-09-25T13:04:40.499Z,0.90
2022-09-25T13:07:38.420Z,1.33
2022-09-25T13:10:32.749Z,1.10
2022-09-25T13:13:08.143Z,1.23
2022-09-25T13:15:40.469Z,1.10
2022-09-25T13:18:16.841Z,1.10
2022-09-25T13:21:37.146Z,0.93
2022-09-25T13:24:09.479Z,1.17
2022-09-25T13:26:53.784Z,1.20
2022-09-25T13:29:28.865Z,4.20
2022-09-25T13:32:07.182Z,2.92
2022-09-25T13:34:38.939Z,1.10
2022-09-25T13:37:09.721Z,1.20
2022-09-25T13:40:05.068Z,1.27
2022-09-25T13:42:42.198Z,1.08
2022-09-25T13:45:32.789Z,1.05
2022-09-25T13:48:10.495Z,1.00
2022-09-25T13:50:39.866Z,1.30
2022-09-25T13:53:20.730Z,1.10
2022-09-25T13:55:50.667Z,1.00
2022-09-25T13:58:19.972Z,1.00
2022-09-25T14:00:50.436Z,1.10
2022-09-25T14:03:37.244Z,1.15
2022-09-25T14:06:05.446Z,1.20
2022-09-25T14:08:34.684Z,1.30
2022-09-25T14:11:07.736Z,0.85
2022-09-25T14:13:35.609Z,0.90
2022-09-25T14:16:09.238Z,0.98
2022-09-25T14:18:40.994Z,0.80
2022-09-25T14:21:10.058Z,1.10
2022-09-25T14:23:52.498Z,1.20
2022-09-25T14:26:28.203Z,1.20
2022-09-25T14:29:00.199Z,1.00
2022-09-25T14:31:33.451Z,0.90
2022-09-25T14:34:26.299Z,1.13
2022-09-25T14:37:06.029Z,1.08
2022-09-25T14:39:52.089Z,1.17
2022-09-25T14:42:41.469Z,2.42
2022-09-25T14:45:42.653Z,15.10
2022-09-25T14:48:25.074Z,9.02
2022-09-25T14:50:56.113Z,5.25
2022-09-25T14:53:32.753Z,2.20
2022-09-25T14:56:03.102Z,2.30
2022-09-25T14:58:33.031Z,1.17
2022-09-25T15:01:23.503Z,1.15
2022-09-25T15:03:51.334Z,2.75
2022-09-25T15:06:34.209Z,1.40
2022-09-25T15:09:03.297Z,1.30
2022-09-25T15:11:43.338Z,4.10
2022-09-25T15:14:16.682Z,5.25
2022-09-25T15:17:02.918Z,8.50
2022-09-25T15:19:45.674Z,4.15
2022-09-25T15:22:19.596Z,3.70
2022-09-25T15:24:54.298Z,3.85
2022-09-25T15:27:23.419Z,4.32
2022-09-25T15:29:51.700Z,4.00
2022-09-25T15:32:25.651Z,4.47
2022-09-25T15:35:17.640Z,2.78
2022-09-25T15:37:45.823Z,3.08
2022-09-25T15:40:18.564Z,2.90
2022-09-25T15:42:47.974Z,2.88
2022-09-25T15:45:44.448Z,3.22
2022-09-25T15:48:36.270Z,2.40
2022-09-25T15:51:21.712Z,2.55
2022-09-25T15:53:54.886Z,2.40
2022-09-25T15:56:51.286Z,2.33
2022-09-25T15:59:20.217Z,1.85
2022-09-25T16:02:07.719Z,1.67
2022-09-25T16:04:54.456Z,1.90
2022-09-25T16:07:30.140Z,2.25
2022-09-25T16:10:17.855Z,2.97
2022-09-25T16:12:49.498Z,2.13
2022-09-25T16:15:30.136Z,1.90
2022-09-25T16:18:05.721Z,3.20
2022-09-25T16:20:37.989Z,2.03
2022-09-25T16:23:16.996Z,2.90
2022-09-25T16:25:45.225Z,2.47
2022-09-25T16:28:20.466Z,2.55
2022-09-25T16:30:50.420Z,2.47
2022-09-25T16:33:27.525Z,2.20
2022-09-25T16:36:13.110Z,2.05
2022-09-25T16:39:03.430Z,2.40
2022-09-25T16:41:31.057Z,2.30
2022-09-25T16:44:14.900Z,2.30
2022-09-25T16:47:03.715Z,2.20
2022-09-25T16:49:33.791Z,2.20
2022-09-25T16:52:04.512Z,2.70
2022-09-25T16:54:32.807Z,3.23
2022-09-25T16:57:02.548Z,3.25
2022-09-25T16:59:30.478Z,3.10
2022-09-25T17:02:02.441Z,3.47
2022-09-25T17:04:31.197Z,3.92
2022-09-25T17:06:58.670Z,4.25
2022-09-25T17:09:31.747Z,3.83
2022-09-25T17:12:05.335Z,4.38
2022-09-25T17:14:32.554Z,3.58
2022-09-25T17:17:00.053Z,4.47
2022-09-25T17:19:27.842Z,4.80
2022-09-25T17:21:56.218Z,4.13
2022-09-25T17:24:26.925Z,6.72
2022-09-25T17:26:55.129Z,7.22
2022-09-25T17:29:22.707Z,7.90
2022-09-25T17:31:50.739Z,6.55
2022-09-25T17:34:21.116Z,6.03
2022-09-25T17:36:48.201Z,4.70
2022-09-25T17:39:15.378Z,5.13
2022-09-25T17:41:43.136Z,5.10
2022-09-25T17:44:28.901Z,5.13
2022-09-25T17:46:56.661Z,4.50
2022-09-25T17:49:25.316Z,5.63
2022-09-25T17:51:52.942Z,6.18
2022-09-25T17:54:20.911Z,6.55
2022-09-25T17:56:48.644Z,5.38
2022-09-25T17:59:16.045Z,6.00
2022-09-25T18:01:43.316Z,5.95
2022-09-25T18:04:36.557Z,6.55
2022-09-25T18:07:04.008Z,6.18
2022-09-25T18:09:31.272Z,7.03
2022-09-25T18:11:58.592Z,5.30
2022-09-25T18:14:26.183Z,4.82
2022-09-25T18:16:53.484Z,4.28
2022-09-25T18:19:40.013Z,4.63
2022-09-25T18:22:20.809Z,4.43
2022-09-25T18:24:53.054Z,4.33
2022-09-25T18:27:20.681Z,4.82
2022-09-25T18:29:47.712Z,4.25
2022-09-25T18:32:15.909Z,4.90
2022-09-25T18:34:43.303Z,4.82
2022-09-25T18:37:11.255Z,3.95
2022-09-25T18:39:39.012Z,4.10
2022-09-25T18:42:06.476Z,4.35
2022-09-25T18:44:38.534Z,4.53
2022-09-25T18:47:08.935Z,4.57
2022-09-25T18:49:38.060Z,4.20
2022-09-25T18:52:06.439Z,4.32
2022-09-25T18:54:34.277Z,5.00
2022-09-25T18:57:01.357Z,4.78
2022-09-25T18:59:28.427Z,4.88
2022-09-25T19:01:56.011Z,7.90
2022-09-25T19:04:23.714Z,9.85
2022-09-25T19:06:50.962Z,10.40
2022-09-25T19:09:18.836Z,11.55
2022-09-25T19:11:46.255Z,11.57
2022-09-25T19:14:14.997Z,9.07
2022-09-25T19:16:42.880Z,9.18
2022-09-25T19:19:11.392Z,10.27
2022-09-25T19:21:41.678Z,10.00
2022-09-25T19:24:09.508Z,9.55
2022-09-25T19:26:37.413Z,9.93
2022-09-25T19:29:05.406Z,15.02
2022-09-25T19:31:32.720Z,23.77
2022-09-25T19:34:02.406Z,29.58
2022-09-25T19:36:32.383Z,29.92
2022-09-25T19:39:01.011Z,16.05
2022-09-25T19:41:34.134Z,15.25
2022-09-25T19:44:12.763Z,11.25
2022-09-25T19:46:46.488Z,13.95
2022-09-25T19:49:16.341Z,17.17
2022-09-25T19:51:44.470Z,14.13
2022-09-25T19:54:14.978Z,16.95
2022-09-25T19:56:42.561Z,16.53
2022-09-25T19:59:14.298Z,15.77
2022-09-25T20:01:43.141Z,14.57
2022-09-25T20:04:17.177Z,10.77
2022-09-25T20:06:49.472Z,8.82
2022-09-25T20:09:21.495Z,8.07
2022-09-25T20:11:50.806Z,6.65
2022-09-25T20:14:25.798Z,6.32
2022-09-25T20:16:54.114Z,6.90
2022-09-25T20:19:30.476Z,7.35
2022-09-25T20:22:20.111Z,7.93
2022-09-25T20:24:48.018Z,6.63
2022-09-25T20:27:17.555Z,6.68
2022-09-25T20:30:12.864Z,7.65
2022-09-25T20:33:12.058Z,7.82
2022-09-25T20:36:10.841Z,16.08
2022-09-25T20:38:38.030Z,9.23
2022-09-25T20:41:07.808Z,8.15
2022-09-25T20:43:35.631Z,7.20
2022-09-25T20:46:07.184Z,6.47
2022-09-25T20:48:36.613Z,6.72
2022-09-25T20:51:05.258Z,7.25
2022-09-25T20:53:32.815Z,7.93
2022-09-25T20:56:13.384Z,6.00
2022-09-25T20:58:41.918Z,6.18
2022-09-25T21:01:12.779Z,7.72
2022-09-25T21:03:42.013Z,8.02
2022-09-25T21:06:13.725Z,7.40
2022-09-25T21:08:41.281Z,6.55
2022-09-25T21:11:10.510Z,6.22
2022-09-25T21:13:39.863Z,6.88
2022-09-25T21:16:09.981Z,6.22
2022-09-25T21:18:38.013Z,6.15
2022-09-25T21:21:08.119Z,7.05
2022-09-25T21:23:35.389Z,6.75
2022-09-25T21:26:10.204Z,7.18
2022-09-25T21:28:39.061Z,7.85
2022-09-25T21:31:18.222Z,6.47
2022-09-25T21:33:45.714Z,6.80
2022-09-25T21:36:15.475Z,6.45
2022-09-25T21:38:42.740Z,7.38
2022-09-25T21:41:13.517Z,6.97
2022-09-25T21:43:41.278Z,6.82
2022-09-25T21:46:18.464Z,7.30
2022-09-25T21:49:00.463Z,6.90
2022-09-25T21:51:31.122Z,7.30
2022-09-25T21:53:59.295Z,7.38
2022-09-25T21:56:27.898Z,7.72
2022-09-25T21:58:56.532Z,7.63
2022-09-25T22:01:27.177Z,7.07
2022-09-25T22:03:57.257Z,7.13
2022-09-25T22:06:31.009Z,6.72
2022-09-25T22:09:01.916Z,6.75
2022-09-25T22:11:29.722Z,7.05
2022-09-25T22:13:58.730Z,6.90
2022-09-25T22:16:30.479Z,6.85
2022-09-25T22:19:10.499Z,7.07
2022-09-25T22:21:38.652Z,6.57
2022-09-25T22:24:06.124Z,7.18
2022-09-25T22:26:36.728Z,6.82
2022-09-25T22:29:04.763Z,6.72
2022-09-25T22:31:33.800Z,7.00
2022-09-25T22:34:04.619Z,7.20
2022-09-25T22:36:33.650Z,6.85
2022-09-25T22:39:00.599Z,6.03
2022-09-25T22:41:27.789Z,7.13
2022-09-25T22:43:55.473Z,7.07
2022-09-25T22:46:24.452Z,7.40
2022-09-25T22:48:52.118Z,8.60
2022-09-25T22:51:24.307Z,6.55
2022-09-25T22:53:52.375Z,6.80
2022-09-25T22:56:23.168Z,6.80
2022-09-25T22:58:53.151Z,6.90
2022-09-25T23:01:33.737Z,6.82
2022-09-25T23:04:03.670Z,6.53
2022-09-25T23:06:32.475Z,6.07
2022-09-25T23:09:03.440Z,5.40
2022-09-25T23:11:30.916Z,6.90
2022-09-25T23:14:03.384Z,6.30
2022-09-25T23:16:32.297Z,6.60
2022-09-25T23:19:00.391Z,6.47
2022-09-25T23:21:29.773Z,6.82
2022-09-25T23:23:58.559Z,5.97
2022-09-25T23:26:26.466Z,6.40
2022-09-25T23:28:54.126Z,6.90
2022-09-25T23:31:22.142Z,6.22
2022-09-25T23:33:49.424Z,7.03
2022-09-25T23:36:20.403Z,7.15
2022-09-25T23:38:49.479Z,7.13
2022-09-25T23:41:37.918Z,7.18
2022-09-25T23:44:08.122Z,6.70
2022-09-25T23:46:38.469Z,7.28
2022-09-25T23:49:06.273Z,6.32
2022-09-25T23:51:33.900Z,6.47
2022-09-25T23:54:02.093Z,6.30
2022-09-25T23:56:32.315Z,6.57
2022-09-25T23:59:03.602Z,6.63
